Corsair — WDI5217 — position and weather

sailwx.info

Track history (hours):
 
Tides and Currents Weather Stations Pressure Air Temp Water Temp Dewpoint Dewpoint Depression Visibility Wind Speed Wind Dir Waves Ship Positions

Corsair

Owner: MIFC SHIPPING LLC, Saint Ignace, MI. More information available from US FCC via Universal Licensing System and Coast Guard Vessel Documentation Center.

Last reported at 2018-Jun-22 16:25 UTC. Time now 2018-Jun-22 16:52 UTC.
Position N 45°51' W 084°37'.

Length 28 m; draft 2.1 m.

Type: Cargo ship. MMSI: 367706320.

Date/timePositionNaut miles runAvg speedWind from/ knotsBaromVisibWave heightAir tempDewpointWater temp
2018-Jun-22 16:25N 45°51' W 084°37'3 1.6
2018-Jun-22 14:18N 45°51' W 084°42'4 9.1
2018-Jun-22 13:55N 45°51' W 084°37'0 0.7
2018-Jun-22 13:30N 45°51' W 084°37'0 0.0
2018-Jun-22 12:56N 45°51' W 084°37'0 0.0
2018-Jun-22 12:30N 45°51' W 084°37'0 0.0
2018-Jun-22 12:00N 45°51' W 084°37'0 0.0
2018-Jun-22 11:30N 45°51' W 084°37'0 0.7
2018-Jun-22 11:00N 45°51' W 084°37'4 7.4
2018-Jun-22 10:30N 45°51' W 084°42'0 0.0
2018-Jun-21 18:58N 45°51' W 084°41'3 4.1
2018-Jun-21 18:11N 45°51' W 084°37'0 1.9
2018-Jun-21 18:00N 45°51' W 084°37'3 2.0
2018-Jun-21 16:25N 45°51' W 084°42'3 2.5
2018-Jun-21 15:04N 45°51' W 084°37'0 6.8
2018-Jun-21 14:59N 45°51' W 084°38'3 1.8
2018-Jun-21 13:11N 45°51' W 084°42'2 8.3
2018-Jun-21 12:58N 45°51' W 084°40'2 2.2
2018-Jun-21 12:09N 45°51' W 084°37'0 0.0
2018-Jun-21 11:54N 45°51' W 084°37'0 0.0
2018-Jun-21 11:08N 45°51' W 084°37'0 2.0
2018-Jun-21 11:00N 45°51' W 084°37'4 6.9
2018-Jun-21 10:28N 45°51' W 084°42'0 0.0
2018-Jun-20 18:31N 45°51' W 084°42'0 8.1
2018-Jun-20 18:29N 45°51' W 084°41'3 2.6
2018-Jun-20 17:15N 45°51' W 084°37'2 8.0
2018-Jun-20 17:00N 45°51' W 084°40'1 0.6
2018-Jun-20 14:36N 45°51' W 084°42'1 8.1
2018-Jun-20 14:30N 45°51' W 084°41'2 2.1
2018-Jun-20 13:28N 45°51' W 084°38'2 1.6
2018-Jun-20 12:09N 45°51' W 084°41'1 8.4
2018-Jun-20 12:00N 45°51' W 084°39'1 2.6
2018-Jun-20 11:30N 45°51' W 084°37'1 2.0
2018-Jun-20 10:57N 45°51' W 084°39'3 0.2
2018-Jun-19 18:15N 45°51' W 084°42'2 7.9
2018-Jun-19 18:00N 45°51' W 084°39'2 3.3
2018-Jun-19 17:30N 45°51' W 084°37'0 0.8
2018-Jun-19 17:00N 45°51' W 084°37'3 1.6
2018-Jun-19 14:53N 45°51' W 084°42'4 8.2
2018-Jun-19 14:27N 45°51' W 084°37'0 0.6
2018-Jun-19 13:59N 45°51' W 084°37'1 2.2
2018-Jun-19 13:29N 45°51' W 084°38'2 1.7
2018-Jun-19 12:07N 45°51' W 084°42'1 8.1
2018-Jun-19 12:00N 45°51' W 084°40'2 4.7
2018-Jun-19 11:30N 45°51' W 084°37'0 0.3
2018-Jun-19 11:00N 45°51' W 084°37'3 6.9
2018-Jun-19 10:30N 45°51' W 084°42'0 0.0
2018-Jun-18 18:02N 45°51' W 084°41'1 8.2
2018-Jun-18 17:57N 45°51' W 084°41'1 0.5
2018-Jun-18 16:41N 45°51' W 084°40'1 1.4
2018-Jun-18 15:50N 45°51' W 084°41'0 0.2
2018-Jun-18 13:37N 45°51' W 084°42'2 7.4
2018-Jun-18 13:16N 45°53' W 084°39'1 4.3
2018-Jun-18 12:57N 45°52' W 084°40'1 1.7
2018-Jun-18 12:18N 45°51' W 084°42'3 7.0
2018-Jun-18 11:56N 45°53' W 084°39'3 1.7
2018-Jun-18 10:27N 45°51' W 084°42'1 0.0
2018-Jun-16 17:11N 45°51' W 084°41'2 8.4
2018-Jun-16 16:56N 45°51' W 084°38'1 1.7
2018-Jun-16 16:24N 45°51' W 084°37'3 4.1
2018-Jun-16 15:33N 45°51' W 084°42'1 8.3
2018-Jun-16 15:28N 45°51' W 084°41'0 0.0
2018-Jun-16 13:49N 45°51' W 084°41'1 1.0
2018-Jun-16 12:54N 45°51' W 084°42'4 8.4
2018-Jun-16 12:29N 45°51' W 084°37'0 0.3
2018-Jun-16 11:31N 45°51' W 084°37'0 7.8
2018-Jun-16 11:30N 45°51' W 084°37'3 0.2
2018-Jun-15 21:34N 45°51' W 084°42'1 7.8
2018-Jun-15 21:29N 45°52' W 084°41'2 4.3
2018-Jun-15 21:00N 45°53' W 084°39'2 2.4
2018-Jun-15 19:58N 45°51' W 084°42'3 7.6
2018-Jun-15 19:30N 45°51' W 084°37'1 2.0
2018-Jun-15 18:58N 45°51' W 084°38'3 1.8
2018-Jun-15 17:29N 45°51' W 084°42'4 7.3
2018-Jun-15 16:59N 45°51' W 084°37'0 0.6
2018-Jun-15 16:30N 45°51' W 084°37'4 2.9
2018-Jun-15 15:16N 45°51' W 084°42'2 7.9
2018-Jun-15 14:59N 45°51' W 084°39'1 1.5
2018-Jun-15 14:03N 45°51' W 084°37'0 6.0
2018-Jun-15 14:00N 45°51' W 084°37'4 3.1
2018-Jun-15 12:48N 45°51' W 084°42'0 0.0
2018-Jun-15 12:30N 45°51' W 084°42'2 4.4
2018-Jun-15 12:00N 45°51' W 084°39'1 2.9
2018-Jun-15 11:30N 45°51' W 084°37'1 1.0
2018-Jun-15 11:00N 45°51' W 084°38'3 0.2
2018-Jun-14 20:22N 45°51' W 084°42'3 7.4
2018-Jun-14 20:00N 45°53' W 084°39'3 1.8
2018-Jun-14 18:31N 45°51' W 084°42'1 7.7
2018-Jun-14 18:23N 45°51' W 084°41'3 2.4
2018-Jun-14 17:19N 45°51' W 084°37'2 5.9
2018-Jun-14 17:00N 45°51' W 084°40'2 0.8
2018-Jun-14 15:03N 45°51' W 084°42'0 7.7
2018-Jun-14 15:00N 45°51' W 084°41'3 3.1
2018-Jun-14 14:01N 45°51' W 084°37'0 7.6
2018-Jun-14 14:00N 45°51' W 084°37'4 2.7
2018-Jun-14 12:41N 45°51' W 084°42'1 8.1
2018-Jun-14 12:30N 45°51' W 084°40'2 4.3
2018-Jun-14 12:00N 45°51' W 084°37'0 0.4
2018-Jun-14 11:30N 45°51' W 084°37'4 7.4
2018-Jun-14 11:01N 45°51' W 084°42'0 0.0
2018-Jun-13 18:44N 45°51' W 084°42'2 7.6
2018-Jun-13 18:30N 45°51' W 084°39'2 3.1
2018-Jun-13 17:57N 45°51' W 084°37'0 0.0
2018-Jun-13 17:28N 45°51' W 084°37'2 4.5
2018-Jun-13 16:57N 45°51' W 084°40'1 0.4
2018-Jun-13 15:28N 45°51' W 084°41'3 3.4
2018-Jun-13 14:40N 45°51' W 084°37'1 5.1
2018-Jun-13 14:28N 45°51' W 084°38'2 3.1
2018-Jun-13 13:43N 45°51' W 084°42'2 7.7
2018-Jun-13 13:31N 45°51' W 084°39'2 0.8
2018-Jun-13 11:12N 45°51' W 084°37'2 6.4
2018-Jun-13 10:57N 45°51' W 084°39'2 0.1
2018-Jun-12 18:02N 45°51' W 084°41'2 2.0
2018-Jun-12 17:00N 45°51' W 084°38'  
Track history (hours):
 
Tides and Currents Weather Stations Pressure Air Temp Water Temp Dewpoint Dewpoint Depression Visibility Wind Speed Wind Dir Waves Ship Positions

Corsair

Owner: MIFC SHIPPING LLC, Saint Ignace, MI. More information available from US FCC via Universal Licensing System and Coast Guard Vessel Documentation Center.

Last reported at 2018-Jun-22 16:25 UTC. Time now 2018-Jun-22 16:52 UTC.
Position N 45°51' W 084°37'.

Length 28 m; draft 2.1 m.

Type: Cargo ship. MMSI: 367706320.

Date/timePositionNaut miles runAvg speedWind from/ knotsBaromVisibWave heightAir tempDewpointWater temp
2018-Jun-22 16:25N 45°51' W 084°37'3 1.6
2018-Jun-22 14:18N 45°51' W 084°42'4 9.1
2018-Jun-22 13:55N 45°51' W 084°37'0 0.7
2018-Jun-22 13:30N 45°51' W 084°37'0 0.0
2018-Jun-22 12:56N 45°51' W 084°37'0 0.0
2018-Jun-22 12:30N 45°51' W 084°37'0 0.0
2018-Jun-22 12:00N 45°51' W 084°37'0 0.0
2018-Jun-22 11:30N 45°51' W 084°37'0 0.7
2018-Jun-22 11:00N 45°51' W 084°37'4 7.4
2018-Jun-22 10:30N 45°51' W 084°42'0 0.0
2018-Jun-21 18:58N 45°51' W 084°41'3 4.1
2018-Jun-21 18:11N 45°51' W 084°37'0 1.9
2018-Jun-21 18:00N 45°51' W 084°37'3 2.0
2018-Jun-21 16:25N 45°51' W 084°42'3 2.5
2018-Jun-21 15:04N 45°51' W 084°37'0 6.8
2018-Jun-21 14:59N 45°51' W 084°38'3 1.8
2018-Jun-21 13:11N 45°51' W 084°42'2 8.3
2018-Jun-21 12:58N 45°51' W 084°40'2 2.2
2018-Jun-21 12:09N 45°51' W 084°37'0 0.0
2018-Jun-21 11:54N 45°51' W 084°37'0 0.0
2018-Jun-21 11:08N 45°51' W 084°37'0 2.0
2018-Jun-21 11:00N 45°51' W 084°37'4 6.9
2018-Jun-21 10:28N 45°51' W 084°42'0 0.0
2018-Jun-20 18:31N 45°51' W 084°42'0 8.1
2018-Jun-20 18:29N 45°51' W 084°41'3 2.6
2018-Jun-20 17:15N 45°51' W 084°37'2 8.0
2018-Jun-20 17:00N 45°51' W 084°40'1 0.6
2018-Jun-20 14:36N 45°51' W 084°42'1 8.1
2018-Jun-20 14:30N 45°51' W 084°41'2 2.1
2018-Jun-20 13:28N 45°51' W 084°38'2 1.6
2018-Jun-20 12:09N 45°51' W 084°41'1 8.4
2018-Jun-20 12:00N 45°51' W 084°39'1 2.6
2018-Jun-20 11:30N 45°51' W 084°37'1 2.0
2018-Jun-20 10:57N 45°51' W 084°39'3 0.2
2018-Jun-19 18:15N 45°51' W 084°42'2 7.9
2018-Jun-19 18:00N 45°51' W 084°39'2 3.3
2018-Jun-19 17:30N 45°51' W 084°37'0 0.8
2018-Jun-19 17:00N 45°51' W 084°37'3 1.6
2018-Jun-19 14:53N 45°51' W 084°42'4 8.2
2018-Jun-19 14:27N 45°51' W 084°37'0 0.6
2018-Jun-19 13:59N 45°51' W 084°37'1 2.2
2018-Jun-19 13:29N 45°51' W 084°38'2 1.7
2018-Jun-19 12:07N 45°51' W 084°42'1 8.1
2018-Jun-19 12:00N 45°51' W 084°40'2 4.7
2018-Jun-19 11:30N 45°51' W 084°37'0 0.3
2018-Jun-19 11:00N 45°51' W 084°37'3 6.9
2018-Jun-19 10:30N 45°51' W 084°42'0 0.0
2018-Jun-18 18:02N 45°51' W 084°41'1 8.2
2018-Jun-18 17:57N 45°51' W 084°41'1 0.5
2018-Jun-18 16:41N 45°51' W 084°40'1 1.4
2018-Jun-18 15:50N 45°51' W 084°41'0 0.2
2018-Jun-18 13:37N 45°51' W 084°42'2 7.4
2018-Jun-18 13:16N 45°53' W 084°39'1 4.3
2018-Jun-18 12:57N 45°52' W 084°40'1 1.7
2018-Jun-18 12:18N 45°51' W 084°42'3 7.0
2018-Jun-18 11:56N 45°53' W 084°39'3 1.7
2018-Jun-18 10:27N 45°51' W 084°42'1 0.0
2018-Jun-16 17:11N 45°51' W 084°41'2 8.4
2018-Jun-16 16:56N 45°51' W 084°38'1 1.7
2018-Jun-16 16:24N 45°51' W 084°37'3 4.1
2018-Jun-16 15:33N 45°51' W 084°42'1 8.3
2018-Jun-16 15:28N 45°51' W 084°41'0 0.0
2018-Jun-16 13:49N 45°51' W 084°41'1 1.0
2018-Jun-16 12:54N 45°51' W 084°42'4 8.4
2018-Jun-16 12:29N 45°51' W 084°37'0 0.3
2018-Jun-16 11:31N 45°51' W 084°37'0 7.8
2018-Jun-16 11:30N 45°51' W 084°37'3 0.2
2018-Jun-15 21:34N 45°51' W 084°42'1 7.8
2018-Jun-15 21:29N 45°52' W 084°41'2 4.3
2018-Jun-15 21:00N 45°53' W 084°39'2 2.4
2018-Jun-15 19:58N 45°51' W 084°42'3 7.6
2018-Jun-15 19:30N 45°51' W 084°37'1 2.0
2018-Jun-15 18:58N 45°51' W 084°38'3 1.8
2018-Jun-15 17:29N 45°51' W 084°42'4 7.3
2018-Jun-15 16:59N 45°51' W 084°37'0 0.6
2018-Jun-15 16:30N 45°51' W 084°37'4 2.9
2018-Jun-15 15:16N 45°51' W 084°42'2 7.9
2018-Jun-15 14:59N 45°51' W 084°39'1 1.5
2018-Jun-15 14:03N 45°51' W 084°37'0 6.0
2018-Jun-15 14:00N 45°51' W 084°37'4 3.1
2018-Jun-15 12:48N 45°51' W 084°42'0 0.0
2018-Jun-15 12:30N 45°51' W 084°42'2 4.4
2018-Jun-15 12:00N 45°51' W 084°39'1 2.9
2018-Jun-15 11:30N 45°51' W 084°37'1 1.0
2018-Jun-15 11:00N 45°51' W 084°38'3 0.2
2018-Jun-14 20:22N 45°51' W 084°42'3 7.4
2018-Jun-14 20:00N 45°53' W 084°39'3 1.8
2018-Jun-14 18:31N 45°51' W 084°42'1 7.7
2018-Jun-14 18:23N 45°51' W 084°41'3 2.4
2018-Jun-14 17:19N 45°51' W 084°37'2 5.9
2018-Jun-14 17:00N 45°51' W 084°40'2 0.8
2018-Jun-14 15:03N 45°51' W 084°42'0 7.7
2018-Jun-14 15:00N 45°51' W 084°41'3 3.1
2018-Jun-14 14:01N 45°51' W 084°37'0 7.6
2018-Jun-14 14:00N 45°51' W 084°37'4 2.7
2018-Jun-14 12:41N 45°51' W 084°42'1 8.1
2018-Jun-14 12:30N 45°51' W 084°40'2 4.3
2018-Jun-14 12:00N 45°51' W 084°37'0 0.4
2018-Jun-14 11:30N 45°51' W 084°37'4 7.4
2018-Jun-14 11:01N 45°51' W 084°42'0 0.0
2018-Jun-13 18:44N 45°51' W 084°42'2 7.6
2018-Jun-13 18:30N 45°51' W 084°39'2 3.1
2018-Jun-13 17:57N 45°51' W 084°37'0 0.0
2018-Jun-13 17:28N 45°51' W 084°37'2 4.5
2018-Jun-13 16:57N 45°51' W 084°40'1 0.4
2018-Jun-13 15:28N 45°51' W 084°41'3 3.4
2018-Jun-13 14:40N 45°51' W 084°37'1 5.1
2018-Jun-13 14:28N 45°51' W 084°38'2 3.1
2018-Jun-13 13:43N 45°51' W 084°42'2 7.7
2018-Jun-13 13:31N 45°51' W 084°39'2 0.8
2018-Jun-13 11:12N 45°51' W 084°37'2 6.4
2018-Jun-13 10:57N 45°51' W 084°39'2 0.1
2018-Jun-12 18:02N 45°51' W 084°41'2 2.0
2018-Jun-12 17:00N 45°51' W 084°38'  

Dump ship's entire track history